Time,TemperatureF,DewpointF,PressureIn,WindDirection,WindDirectionDegrees,WindSpeedMPH,WindSpeedGustMPH,Humidity,HourlyPrecipIn,Conditions,Clouds,dailyrainin,SoftwareType,DateUTC
2013-06-12 00:01:00,68.0,44.0,29.63,South,181,0.0,1.0,42,0.00,,,0.00,weatherlink.com 1.10,2013-06-12 07:01:00,
2013-06-12 00:16:00,66.9,42.0,29.63,South,181,0.0,0.0,40,0.00,,,0.00,weatherlink.com 1.10,2013-06-12 07:16:00,
2013-06-12 00:31:00,65.7,42.0,29.64,South,181,0.0,0.0,42,0.00,,,0.00,weatherlink.com 1.10,2013-06-12 07:31:00,
2013-06-12 00:46:00,64.6,41.0,29.63,South,181,0.0,0.0,42,0.00,,,0.00,weatherlink.com 1.10,2013-06-12 07:46:00,
2013-06-12 01:01:00,63.7,42.0,29.64,WSW,243,0.0,2.0,46,0.00,,,0.00,weatherlink.com 1.10,2013-06-12 08:01:00,
2013-06-12 01:16:00,62.9,43.0,29.64,WSW,243,0.0,0.0,48,0.00,,,0.00,weatherlink.com 1.10,2013-06-12 08:16:00,
2013-06-12 01:31:00,61.9,42.0,29.64,WSW,243,0.0,3.0,48,0.00,,,0.00,weatherlink.com 1.10,2013-06-12 08:31:00,
2013-06-12 01:46:00,61.0,42.0,29.64,SSW,193,0.0,1.0,50,0.00,,,0.00,weatherlink.com 1.10,2013-06-12 08:46:00,
2013-06-12 02:01:00,60.2,43.0,29.64,SSW,193,0.0,2.0,53,0.00,,,0.00,weatherlink.com 1.10,2013-06-12 09:01:00,
2013-06-12 02:16:00,60.0,43.0,29.64,SSW,193,0.0,0.0,53,0.00,,,0.00,weatherlink.com 1.10,2013-06-12 09:16:00,
2013-06-12 02:31:00,59.3,43.0,29.64,SSW,193,0.0,1.0,55,0.00,,,0.00,weatherlink.com 1.10,2013-06-12 09:31:00,
2013-06-12 02:47:00,59.0,43.0,29.64,SSW,193,0.0,2.0,55,0.00,,,0.00,weatherlink.com 1.10,2013-06-12 09:47:00,
2013-06-12 03:02:00,58.5,44.0,29.64,SSW,193,0.0,1.0,58,0.00,,,0.00,weatherlink.com 1.10,2013-06-12 10:02:00,
2013-06-12 03:17:00,57.8,44.0,29.64,SSW,193,0.0,1.0,61,0.00,,,0.00,weatherlink.com 1.10,2013-06-12 10:17:00,
2013-06-12 03:32:00,57.0,44.0,29.64,SSW,193,0.0,0.0,62,0.00,,,0.00,weatherlink.com 1.10,2013-06-12 10:32:00,
2013-06-12 03:47:00,56.2,44.0,29.65,SSW,193,0.0,1.0,63,0.00,,,0.00,weatherlink.com 1.10,2013-06-12 10:47:00,
2013-06-12 04:02:00,55.6,43.0,29.65,SSW,193,0.0,1.0,64,0.00,,,0.00,weatherlink.com 1.10,2013-06-12 11:02:00,
2013-06-12 04:17:00,55.3,44.0,29.65,SSW,193,0.0,0.0,66,0.00,,,0.00,weatherlink.com 1.10,2013-06-12 11:17:00,
2013-06-12 04:32:00,54.6,44.0,29.65,SSW,193,1.0,1.0,67,0.00,,,0.00,weatherlink.com 1.10,2013-06-12 11:32:00,
2013-06-12 04:47:00,54.5,44.0,29.65,SSW,193,0.0,1.0,69,0.00,,,0.00,weatherlink.com 1.10,2013-06-12 11:47:00,
2013-06-12 05:02:00,54.0,44.0,29.66,SSW,193,0.0,0.0,69,0.00,,,0.00,weatherlink.com 1.10,2013-06-12 12:02:00,
2013-06-12 05:17:00,53.7,44.0,29.66,SSW,193,0.0,0.0,71,0.00,,,0.00,weatherlink.com 1.10,2013-06-12 12:17:00,
2013-06-12 05:32:00,53.3,45.0,29.67,SSW,193,0.0,0.0,73,0.00,,,0.00,weatherlink.com 1.10,2013-06-12 12:32:00,
2013-06-12 05:47:00,54.1,46.0,29.68,SSW,193,0.0,0.0,73,0.00,,,0.00,weatherlink.com 1.10,2013-06-12 12:47:00,
2013-06-12 06:02:00,57.8,47.0,29.68,WSW,242,0.0,0.0,68,0.00,,,0.00,weatherlink.com 1.10,2013-06-12 13:02:00,
2013-06-12 06:17:00,61.5,47.0,29.68,WSW,242,1.0,2.0,60,0.00,,,0.00,weatherlink.com 1.10,2013-06-12 13:17:00,
2013-06-12 06:32:00,63.4,48.0,29.68,WSW,252,0.0,2.0,57,0.00,,,0.00,weatherlink.com 1.10,2013-06-12 13:32:00,
2013-06-12 06:47:00,67.9,52.0,29.68,WSW,252,0.0,1.0,58,0.00,,,0.00,weatherlink.com 1.10,2013-06-12 13:47:00,
2013-06-12 07:02:00,70.9,52.0,29.68,WSW,252,0.0,1.0,51,0.00,,,0.00,weatherlink.com 1.10,2013-06-12 14:02:00,
2013-06-12 07:17:00,72.2,47.0,29.68,NE,39,2.0,2.0,41,0.00,,,0.00,weatherlink.com 1.10,2013-06-12 14:17:00,
2013-06-12 07:32:00,76.3,47.0,29.68,NE,38,0.0,2.0,36,0.00,,,0.00,weatherlink.com 1.10,2013-06-12 14:32:00,
2013-06-12 07:47:00,80.4,54.0,29.69,NE,36,0.0,2.0,40,0.00,,,0.00,weatherlink.com 1.10,2013-06-12 14:47:00,
2013-06-12 08:02:00,82.4,51.0,29.68,NE,36,0.0,2.0,33,0.00,,,0.00,weatherlink.com 1.10,2013-06-12 15:02:00,
2013-06-12 08:17:00,84.3,49.0,29.68,NE,43,1.0,2.0,29,0.00,,,0.00,weatherlink.com 1.10,2013-06-12 15:17:00,
2013-06-12 08:33:00,85.8,43.0,29.68,NE,42,0.0,2.0,22,0.00,,,0.00,weatherlink.com 1.10,2013-06-12 15:33:00,
2013-06-12 08:48:00,87.9,45.0,29.68,NE,42,0.0,2.0,22,0.00,,,0.00,weatherlink.com 1.10,2013-06-12 15:48:00,
2013-06-12 09:03:00,90.3,45.0,29.68,ENE,63,0.0,2.0,21,0.00,,,0.00,weatherlink.com 1.10,2013-06-12 16:03:00,
2013-06-12 09:18:00,90.3,41.0,29.67,ENE,63,0.0,2.0,18,0.00,,,0.00,weatherlink.com 1.10,2013-06-12 16:18:00,
2013-06-12 09:33:00,90.5,39.0,29.67,ENE,62,0.0,2.0,16,0.00,,,0.00,weatherlink.com 1.10,2013-06-12 16:33:00,
2013-06-12 09:48:00,91.6,45.0,29.67,North,355,2.0,3.0,20,0.00,,,0.00,weatherlink.com 1.10,2013-06-12 16:48:00,
2013-06-12 10:03:00,93.6,39.0,29.66,WSW,253,1.0,4.0,15,0.00,,,0.00,weatherlink.com 1.10,2013-06-12 17:03:00,
2013-06-12 10:18:00,95.5,37.0,29.66,WSW,253,1.0,2.0,13,0.00,,,0.00,weatherlink.com 1.10,2013-06-12 17:18:00,
2013-06-12 10:33:00,96.6,44.0,29.66,West,273,2.0,3.0,16,0.00,,,0.00,weatherlink.com 1.10,2013-06-12 17:33:00,
2013-06-12 10:48:00,98.3,47.0,29.65,WSW,256,1.0,3.0,17,0.00,,,0.00,weatherlink.com 1.10,2013-06-12 17:48:00,
2013-06-12 11:03:00,99.2,40.0,29.65,SSW,198,0.0,2.0,13,0.00,,,0.00,weatherlink.com 1.10,2013-06-12 18:03:00,
2013-06-12 11:18:00,99.2,42.0,29.64,SE,128,2.0,4.0,14,0.00,,,0.00,weatherlink.com 1.10,2013-06-12 18:18:00,
2013-06-12 11:33:00,99.2,42.0,29.64,SE,133,2.0,3.0,14,0.00,,,0.00,weatherlink.com 1.10,2013-06-12 18:33:00,
2013-06-12 11:48:00,99.1,38.0,29.63,NW,311,2.0,4.0,12,0.00,,,0.00,weatherlink.com 1.10,2013-06-12 18:48:00,
2013-06-12 12:03:00,99.4,38.0,29.62,NW,311,3.0,6.0,12,0.00,,,0.00,weatherlink.com 1.10,2013-06-12 19:03:00,
2013-06-12 12:33:00,102.1,33.0,29.61,ENE,61,3.0,4.0,9,0.00,,,0.00,weatherlink.com 1.10,2013-06-12 19:33:00,
2013-06-12 12:48:00,100.9,37.0,29.60,WSW,249,2.0,5.0,11,0.00,,,0.00,weatherlink.com 1.10,2013-06-12 19:48:00,
2013-06-12 13:03:00,101.3,38.0,29.59,SE,144,2.0,7.0,11,0.00,,,0.00,weatherlink.com 1.10,2013-06-12 20:03:00,
2013-06-12 13:18:00,101.8,30.0,29.59,East,100,2.0,7.0,8,0.00,,,0.00,weatherlink.com 1.10,2013-06-12 20:18:00,
2013-06-12 13:33:00,101.9,44.0,29.57,NW,304,2.0,10.0,14,0.00,,,0.00,weatherlink.com 1.10,2013-06-12 20:33:00,
2013-06-12 13:48:00,102.4,39.0,29.57,ESE,115,2.0,10.0,11,0.00,,,0.00,weatherlink.com 1.10,2013-06-12 20:48:00,
2013-06-12 14:03:00,102.9,43.0,29.56,SE,136,5.0,10.0,13,0.00,,,0.00,weatherlink.com 1.10,2013-06-12 21:03:00,
2013-06-12 14:18:00,103.3,44.0,29.56,SSW,197,4.0,12.0,13,0.00,,,0.00,weatherlink.com 1.10,2013-06-12 21:18:00,
2013-06-12 14:34:00,104.0,40.0,29.55,ESE,103,10.0,10.0,11,0.00,,,0.00,weatherlink.com 1.10,2013-06-12 21:34:00,
2013-06-12 14:49:00,103.3,39.0,29.55,SE,144,3.0,16.0,11,0.00,,,0.00,weatherlink.com 1.10,2013-06-12 21:49:00,
2013-06-12 15:04:00,104.2,40.0,29.55,SW,229,3.0,9.0,11,0.00,,,0.00,weatherlink.com 1.10,2013-06-12 22:04:00,
2013-06-12 15:19:00,105.3,36.0,29.54,SW,234,4.0,15.0,9,0.00,,,0.00,weatherlink.com 1.10,2013-06-12 22:19:00,
2013-06-12 15:34:00,104.6,40.0,29.54,SW,231,5.0,12.0,11,0.00,,,0.00,weatherlink.com 1.10,2013-06-12 22:34:00,
2013-06-12 15:49:00,103.9,40.0,29.54,SSW,208,8.0,11.0,11,0.00,,,0.00,weatherlink.com 1.10,2013-06-12 22:49:00,
2013-06-12 16:04:00,103.9,40.0,29.54,East,98,3.0,11.0,11,0.00,,,0.00,weatherlink.com 1.10,2013-06-12 23:04:00,
2013-06-12 16:19:00,103.2,39.0,29.54,SSW,208,9.0,13.0,11,0.00,,,0.00,weatherlink.com 1.10,2013-06-12 23:19:00,
2013-06-12 16:34:00,102.3,41.0,29.53,SE,133,2.0,12.0,12,0.00,,,0.00,weatherlink.com 1.10,2013-06-12 23:34:00,
2013-06-12 16:49:00,102.2,38.0,29.53,South,169,2.0,9.0,11,0.00,,,0.00,weatherlink.com 1.10,2013-06-12 23:49:00,
2013-06-12 17:04:00,100.9,44.0,29.53,SE,141,1.0,9.0,14,0.00,,,0.00,weatherlink.com 1.10,2013-06-13 00:04:00,
2013-06-12 17:19:00,101.0,37.0,29.53,WSW,238,11.0,12.0,11,0.00,,,0.00,weatherlink.com 1.10,2013-06-13 00:19:00,
2013-06-12 17:34:00,102.7,34.0,29.53,SW,226,4.0,9.0,9,0.00,,,0.00,weatherlink.com 1.10,2013-06-13 00:34:00,
2013-06-12 17:49:00,102.7,31.0,29.53,SW,226,2.0,11.0,8,0.00,,,0.00,weatherlink.com 1.10,2013-06-13 00:49:00,
2013-06-12 18:04:00,102.7,34.0,29.52,SW,233,2.0,14.0,9,0.00,,,0.00,weatherlink.com 1.10,2013-06-13 01:04:00,
2013-06-12 18:19:00,102.8,31.0,29.53,WSW,254,5.0,10.0,8,0.00,,,0.00,weatherlink.com 1.10,2013-06-13 01:19:00,
2013-06-12 18:34:00,101.0,32.0,29.53,West,269,2.0,8.0,9,0.00,,,0.00,weatherlink.com 1.10,2013-06-13 01:34:00,
2013-06-12 18:49:00,99.5,34.0,29.53,SW,227,2.0,10.0,10,0.00,,,0.00,weatherlink.com 1.10,2013-06-13 01:49:00,
2013-06-12 19:04:00,97.1,32.0,29.54,SW,221,4.0,11.0,10,0.00,,,0.00,weatherlink.com 1.10,2013-06-13 02:04:00,
2013-06-12 19:19:00,95.4,33.0,29.54,West,266,4.0,8.0,11,0.00,,,0.00,weatherlink.com 1.10,2013-06-13 02:19:00,
2013-06-12 19:34:00,93.8,34.0,29.54,SW,234,5.0,10.0,12,0.00,,,0.00,weatherlink.com 1.10,2013-06-13 02:34:00,
2013-06-12 19:49:00,92.4,33.0,29.55,SSW,213,2.0,5.0,12,0.00,,,0.00,weatherlink.com 1.10,2013-06-13 02:49:00,
2013-06-12 20:04:00,90.3,41.0,29.55,SW,228,0.0,2.0,18,0.00,,,0.00,weatherlink.com 1.10,2013-06-13 03:04:00,
2013-06-12 20:19:00,86.0,42.0,29.55,SW,228,0.0,1.0,21,0.00,,,0.00,weatherlink.com 1.10,2013-06-13 03:19:00,
2013-06-12 20:34:00,82.7,42.0,29.55,SW,228,0.0,1.0,24,0.00,,,0.00,weatherlink.com 1.10,2013-06-13 03:34:00,
2013-06-12 20:49:00,80.2,43.0,29.55,West,279,0.0,2.0,27,0.00,,,0.00,weatherlink.com 1.10,2013-06-13 03:49:00,
2013-06-12 21:06:00,78.5,44.0,29.55,West,279,0.0,2.0,29,0.00,,,0.00,weatherlink.com 1.10,2013-06-13 04:06:00,
2013-06-12 21:18:00,77.0,42.0,29.56,West,275,0.0,2.0,29,0.00,,,0.00,weatherlink.com 1.10,2013-06-13 04:18:00,
2013-06-12 21:33:00,77.0,40.0,29.56,SE,126,1.0,5.0,26,0.00,,,0.00,weatherlink.com 1.10,2013-06-13 04:33:00,
2013-06-12 21:48:00,78.5,37.0,29.56,East,85,2.0,5.0,22,0.00,,,0.00,weatherlink.com 1.10,2013-06-13 04:48:00,
2013-06-12 22:03:00,80.4,34.0,29.57,NE,34,2.0,4.0,19,0.00,,,0.00,weatherlink.com 1.10,2013-06-13 05:03:00,
2013-06-12 22:18:00,81.3,35.0,29.57,SSW,198,0.0,5.0,19,0.00,,,0.00,weatherlink.com 1.10,2013-06-13 05:18:00,
2013-06-12 22:33:00,80.7,35.0,29.57,East,96,3.0,8.0,19,0.00,,,0.00,weatherlink.com 1.10,2013-06-13 05:33:00,
2013-06-12 22:48:00,81.7,34.0,29.57,East,82,1.0,7.0,18,0.00,,,0.00,weatherlink.com 1.10,2013-06-13 05:48:00,
2013-06-12 23:03:00,81.3,37.0,29.58,SSW,201,2.0,4.0,20,0.00,,,0.00,weatherlink.com 1.10,2013-06-13 06:03:00,
2013-06-12 23:18:00,79.4,37.0,29.57,SSW,202,1.0,1.0,22,0.00,,,0.00,weatherlink.com 1.10,2013-06-13 06:18:00,
2013-06-12 23:33:00,76.8,36.0,29.57,SSW,213,1.0,3.0,23,0.00,,,0.00,weatherlink.com 1.10,2013-06-13 06:33:00,
2013-06-12 23:48:00,75.1,38.0,29.58,SW,214,0.0,4.0,26,0.00,,,0.00,weatherlink.com 1.10,2013-06-13 06:48:00,